createdAt,value
2019-02-06T00:02:51.626Z,102367.31
2019-02-06T00:08:00.496Z,102360.84
2019-02-06T00:13:09.662Z,102351.66
2019-02-06T00:18:18.331Z,102346.02
2019-02-06T00:23:37.037Z,102350.74
2019-02-06T00:28:47.213Z,102340.38
2019-02-06T00:33:59.756Z,102347.69
2019-02-06T00:39:16.630Z,102345.96
2019-02-06T00:44:31.973Z,102337.88
2019-02-06T00:49:44.642Z,102334.46
2019-02-06T00:54:56.292Z,102330.86
2019-02-06T01:00:06.212Z,102330.86
2019-02-06T01:05:18.698Z,102311.80
2019-02-06T01:10:33.251Z,102314.36
2019-02-06T01:15:44.434Z,102303.96
2019-02-06T01:20:52.389Z,102309.91
2019-02-06T01:26:04.540Z,102298.70
2019-02-06T01:31:19.932Z,102303.81
2019-02-06T01:36:33.448Z,102301.24
2019-02-06T01:41:47.188Z,102289.22
2019-02-06T01:46:59.332Z,102283.09
2019-02-06T01:52:13.814Z,102277.45
2019-02-06T01:57:23.792Z,102264.97
2019-02-06T02:02:33.073Z,102246.75
2019-02-06T02:07:45.832Z,102245.88
2019-02-06T02:12:59.458Z,102244.08
2019-02-06T02:18:07.373Z,102228.98
2019-02-06T02:23:17.241Z,102221.18
2019-02-06T02:28:28.486Z,102227.66
2019-02-06T02:33:38.536Z,102223.77
2019-02-06T02:38:49.466Z,102214.78
2019-02-06T02:44:02.450Z,102215.67
2019-02-06T02:49:12.459Z,102206.97
2019-02-06T02:54:26.863Z,102211.29
2019-02-06T02:59:38.910Z,102206.92
2019-02-06T03:04:54.952Z,102195.72
2019-02-06T03:10:02.764Z,102179.27
2019-02-06T03:15:23.627Z,102162.02
2019-02-06T03:20:36.299Z,102155.95
2019-02-06T03:25:48.949Z,102172.38
2019-02-06T03:31:00.782Z,102168.43
2019-02-06T03:36:13.038Z,102155.42
2019-02-06T03:41:19.864Z,102155.87
2019-02-06T03:46:33.607Z,102152.83
2019-02-06T03:51:43.033Z,102133.89
2019-02-06T03:56:57.193Z,102123.89
2019-02-06T04:02:08.601Z,102121.31
2019-02-06T04:07:15.200Z,102104.42
2019-02-06T04:12:30.166Z,102103.23
2019-02-06T04:17:44.817Z,102099.34
2019-02-06T04:22:59.441Z,102098.09
2019-02-06T04:28:11.690Z,102105.82
2019-02-06T04:33:26.222Z,102106.73
2019-02-06T04:38:40.967Z,102114.01
2019-02-06T04:43:50.995Z,102121.72
2019-02-06T04:49:00.447Z,102119.53
2019-02-06T04:54:11.814Z,102123.76
2019-02-06T04:59:23.663Z,102112.55
2019-02-06T05:04:42.606Z,102104.84
2019-02-06T05:09:54.427Z,102109.16
2019-02-06T05:15:05.447Z,102104.45
2019-02-06T05:20:36.450Z,102090.19
2019-02-06T05:25:47.336Z,102083.71
2019-02-06T05:30:59.185Z,102091.03
2019-02-06T05:36:08.399Z,102079.77
2019-02-06T05:41:17.384Z,102081.45
2019-02-06T05:46:27.351Z,102076.69
2019-02-06T05:51:42.250Z,102065.47
2019-02-06T05:56:54.951Z,102065.39
2019-02-06T06:02:08.844Z,102032.59
2019-02-06T06:07:20.870Z,102039.48
2019-02-06T06:12:31.972Z,102029.90
2019-02-06T06:17:44.105Z,102029.90
2019-02-06T06:22:56.845Z,102039.87
2019-02-06T06:28:04.921Z,102025.70
2019-02-06T06:33:14.951Z,102016.16
2019-02-06T06:38:24.903Z,102039.17
2019-02-06T06:43:33.036Z,102031.45
2019-02-06T06:48:42.270Z,102037.49
2019-02-06T06:53:52.199Z,102042.97
2019-02-06T06:59:03.469Z,102044.28
2019-02-06T07:04:16.200Z,102041.34
2019-02-06T07:09:26.920Z,102044.33
2019-02-06T07:14:39.592Z,102037.47
2019-02-06T07:19:48.213Z,102045.28
2019-02-06T07:24:59.056Z,102041.88
2019-02-06T07:30:08.554Z,102044.13
2019-02-06T07:35:19.301Z,102051.94
2019-02-06T07:40:31.044Z,102043.77
2019-02-06T07:45:43.682Z,102040.28
2019-02-06T07:50:50.988Z,102047.14
2019-02-06T07:56:02.109Z,102039.45
2019-02-06T08:01:10.373Z,102032.46
2019-02-06T08:06:23.043Z,102032.46
2019-02-06T08:11:37.638Z,102043.29
2019-02-06T08:16:52.676Z,102040.19
2019-02-06T08:22:06.890Z,102041.89
2019-02-06T08:27:21.187Z,102045.72
2019-02-06T08:32:38.597Z,102048.78
2019-02-06T08:37:51.323Z,102050.50
2019-02-06T08:43:02.893Z,102054.85
2019-02-06T08:48:08.744Z,102058.20
2019-02-06T08:53:17.054Z,102061.28
2019-02-06T08:58:25.305Z,102053.45
2019-02-06T09:03:41.490Z,102064.66
2019-02-06T09:08:59.946Z,102062.12
2019-02-06T09:14:03.387Z,102064.27
2019-02-06T09:19:22.587Z,102058.27
2019-02-06T09:24:40.495Z,102064.82
2019-02-06T09:29:58.600Z,102065.34
2019-02-06T09:35:09.556Z,102062.75
2019-02-06T09:40:24.396Z,102064.98
2019-02-06T09:45:37.828Z,102065.05
2019-02-06T09:50:50.419Z,102060.67
2019-02-06T09:56:06.155Z,102064.61
2019-02-06T10:01:33.478Z,102058.59
2019-02-06T10:07:03.813Z,102048.30
2019-02-06T10:12:19.174Z,102050.45
2019-02-06T10:17:27.526Z,102051.77
2019-02-06T10:22:41.963Z,102050.09
2019-02-06T10:27:59.273Z,102054.47
2019-02-06T10:33:13.387Z,102047.13
2019-02-06T10:38:20.735Z,102048.88
2019-02-06T10:43:32.219Z,102049.36
2019-02-06T10:48:38.690Z,102036.83
2019-02-06T10:53:45.979Z,102035.55
2019-02-06T10:58:55.072Z,102035.55
2019-02-06T11:04:09.636Z,102031.70
2019-02-06T11:09:21.647Z,102022.20
2019-02-06T11:14:38.794Z,102014.84
2019-02-06T11:19:47.748Z,102018.73
2019-02-06T11:24:58.570Z,102010.52
2019-02-06T11:30:07.343Z,102004.03
2019-02-06T11:35:18.630Z,102014.01
2019-02-06T11:40:30.144Z,102007.07
2019-02-06T11:45:45.457Z,101991.48
2019-02-06T11:50:54.894Z,101984.56
2019-02-06T11:56:07.505Z,101979.37
2019-02-06T12:01:25.978Z,101984.55
2019-02-06T12:06:35.149Z,101976.75
2019-02-06T12:11:52.901Z,101967.20
2019-02-06T12:17:04.762Z,101958.52
2019-02-06T12:22:12.302Z,101953.33
2019-02-06T12:27:20.966Z,101952.91
2019-02-06T12:32:36.391Z,101945.08
2019-02-06T12:37:48.897Z,101935.08
2019-02-06T12:42:58.837Z,101934.20
2019-02-06T12:48:06.530Z,101913.36
2019-02-06T12:53:17.277Z,101886.43
2019-02-06T12:58:26.210Z,101910.63
2019-02-06T13:03:37.826Z,101906.34
2019-02-06T13:08:54.885Z,101895.91
2019-02-06T13:14:05.777Z,101893.74
2019-02-06T13:19:15.266Z,101893.72
2019-02-06T13:24:31.113Z,101871.12
2019-02-06T13:29:42.701Z,101871.12
2019-02-06T13:34:55.279Z,101864.54
2019-02-06T13:40:07.755Z,101858.92
2019-02-06T13:45:23.050Z,101852.00
2019-02-06T13:50:34.025Z,101843.27
2019-02-06T13:55:45.247Z,101842.44
2019-02-06T14:00:53.319Z,101839.36
2019-02-06T14:06:01.419Z,101837.16
2019-02-06T14:11:09.461Z,101837.56
2019-02-06T14:16:19.447Z,101825.97
2019-02-06T14:21:25.979Z,101825.97
2019-02-06T14:26:55.844Z,101822.91
2019-02-06T14:32:53.257Z,101821.57
2019-02-06T14:38:33.356Z,101813.31
2019-02-06T14:44:40.777Z,101819.02
2019-02-06T14:50:27.206Z,101811.56
2019-02-06T14:56:20.966Z,101800.66
2019-02-06T15:01:54.488Z,101788.09
2019-02-06T15:07:45.805Z,101782.84
2019-02-06T15:13:28.190Z,101772.42
2019-02-06T15:19:16.997Z,101752.56
2019-02-06T15:25:12.012Z,101751.71
2019-02-06T15:30:55.235Z,101753.33
2019-02-06T15:36:37.010Z,101755.08
2019-02-06T15:42:04.939Z,101741.70
2019-02-06T15:47:47.429Z,101741.70
2019-02-06T15:53:25.138Z,101729.98
2019-02-06T15:59:05.197Z,101736.40
2019-02-06T16:04:58.052Z,101731.59
2019-02-06T16:10:45.131Z,101728.54
2019-02-06T16:16:24.473Z,101716.47
2019-02-06T16:21:59.500Z,101697.84
2019-02-06T16:27:40.805Z,101697.80
2019-02-06T16:33:16.327Z,101703.40
2019-02-06T16:39:02.193Z,101705.99
2019-02-06T16:44:46.548Z,101695.08
2019-02-06T16:50:36.804Z,101702.04
2019-02-06T16:56:10.896Z,101700.33
2019-02-06T17:01:48.721Z,101693.78
2019-02-06T17:07:38.382Z,101690.32
2019-02-06T17:13:15.436Z,101690.32
2019-02-06T17:19:28.813Z,101684.70
2019-02-06T17:25:15.921Z,101676.84
2019-02-06T17:30:41.126Z,101669.83
2019-02-06T17:36:19.517Z,101654.64
2019-02-06T17:41:40.523Z,101654.64
2019-02-06T17:47:13.718Z,101654.97
2019-02-06T17:52:58.264Z,101643.70
2019-02-06T17:58:10.945Z,101641.05
2019-02-06T18:03:25.882Z,101637.60
2019-02-06T18:08:35.882Z,101631.59
2019-02-06T18:13:47.572Z,101635.05
2019-02-06T18:19:00.071Z,101634.58
2019-02-06T18:24:07.637Z,101623.70
2019-02-06T18:29:23.302Z,101620.53
2019-02-06T18:34:33.468Z,101613.16
2019-02-06T18:39:43.318Z,101613.99
2019-02-06T18:44:56.772Z,101608.73
2019-02-06T18:50:06.956Z,101605.67
2019-02-06T18:55:16.273Z,101595.77
2019-02-06T19:00:34.310Z,101594.92
2019-02-06T19:05:46.782Z,101574.91
2019-02-06T19:10:56.871Z,101567.09
2019-02-06T19:16:05.860Z,101559.28
2019-02-06T19:21:16.587Z,101550.94
2019-02-06T19:26:26.567Z,101545.27
2019-02-06T19:31:40.358Z,101532.70
2019-02-06T19:36:52.899Z,101530.48
2019-02-06T19:42:02.471Z,101522.73
2019-02-06T19:47:11.450Z,101521.80
2019-02-06T19:52:24.273Z,101511.45
2019-02-06T19:57:39.564Z,101505.34
2019-02-06T20:02:52.423Z,101493.20
2019-02-06T20:09:05.509Z,101482.78
2019-02-06T20:14:17.674Z,101475.34
2019-02-06T20:19:27.567Z,101467.92
2019-02-06T20:24:41.862Z,101463.15
2019-02-06T20:29:53.597Z,101447.98
2019-02-06T20:35:05.422Z,101435.34
2019-02-06T20:40:29.924Z,101428.43
2019-02-06T20:45:39.832Z,101427.06
2019-02-06T20:50:51.595Z,101425.75
2019-02-06T20:56:06.438Z,101418.31
2019-02-06T21:01:18.258Z,101425.75
2019-02-06T21:06:27.731Z,101422.16
2019-02-06T21:11:44.172Z,101419.15
2019-02-06T21:16:54.186Z,101411.31
2019-02-06T21:22:07.656Z,101402.61
2019-02-06T21:27:17.540Z,101386.55
2019-02-06T21:32:25.186Z,101376.91
2019-02-06T21:37:37.733Z,101370.38
2019-02-06T21:42:53.028Z,101377.75
2019-02-06T21:48:04.778Z,101369.08
2019-02-06T21:53:20.239Z,101359.09
2019-02-06T21:58:32.742Z,101348.63
2019-02-06T22:03:43.589Z,101345.16
2019-02-06T22:08:55.273Z,101331.73
2019-02-06T22:14:12.017Z,101325.68
2019-02-06T22:19:23.307Z,101314.41
2019-02-06T22:24:34.932Z,101312.22
2019-02-06T22:29:48.357Z,101300.06
2019-02-06T22:35:07.558Z,101293.57
2019-02-06T22:40:36.727Z,101291.36
2019-02-06T22:45:44.960Z,101276.63
2019-02-06T22:50:56.803Z,101274.49
2019-02-06T22:56:09.438Z,101262.69
2019-02-06T23:01:36.774Z,101251.84
2019-02-06T23:06:47.143Z,101229.33
2019-02-06T23:12:03.357Z,101229.33
2019-02-06T23:17:14.288Z,101228.80
2019-02-06T23:22:27.062Z,101224.89
2019-02-06T23:27:36.958Z,101213.16
2019-02-06T23:32:48.173Z,101209.26
2019-02-06T23:37:56.536Z,101201.87
2019-02-06T23:43:06.117Z,101187.53
2019-02-06T23:48:16.837Z,101177.13
2019-02-06T23:53:34.465Z,101157.60
2019-02-06T23:58:46.264Z,101149.30
